MMCS

Details ICAO MMCS (CJS)
Name ABRAHAM GONZALEZ INTL
Region Mexico
Timezone America/Ojinaga (UTC-6.0)
Plans Departing 40
Arriving 23
Stats Elevation 3,904 ft / 1,190 m (AMSL)
Location 31.636912° -106.427792°
Runways 2
Magnetic Variation 8.062° E
Sunrise 2018-06-24 12:03:04 UTC / 2018-06-24 06:03:04 Local
Sunset 2018-06-25 02:15:41 UTC / 2018-06-24 20:15:41 Local
Advertisement - Login to hide

Runways

ID Width Length Bearing (true) Bearing (mag) Surface Threshold Offset Overrun Length
03 148 ft / 45 m 8,883 ft / 2,708 m 38.35° 30.29° Asphalt 0 ft / 0 m 185 ft / 56 m
14 98 ft / 30 m 5,757 ft / 1,755 m 156.48° 148.42° Asphalt 0 ft / 0 m 0 ft / 0 m
21 148 ft / 45 m 8,883 ft / 2,708 m 218.36° 210.30° Asphalt 0 ft / 0 m 190 ft / 58 m
32 98 ft / 30 m 5,757 ft / 1,755 m 336.48° 328.42° Asphalt 0 ft / 0 m 0 ft / 0 m

Map

Weather


0- 5 10 15 20 25 30 35+ Temperature / ° C

Clouds and Precipitation
Forecast for 2018-06-24 18:00 UTC. Updated 5 hours ago

Ground ~20,000 ft ~40,000 ft Winds

METAR

Not found

TAF

TAF MMCS 241712Z 2418/2518 26010G20KT P6SM SKC FM250100 23010KT P6SM SKC

Frequencies

Tower 118.90 MHz JUAREZ TWR
Approach 119.90 MHz JUAREZ APP
Warning: Do not use this data for real-world aviation or navigation. No guarantee of current accuracy is given.